Wichita Mid Continent Airport
KICT : rendu visible

Aérodrome :











RETROUVEZ-NOUS SUR...

 
LOGIN :

S'inscrire | Disclaimer

   EN    FR    IT 

 









Légende :    VFR   VFR Marginal   IFR   IFR Intensif   IFR Très Intensif
Visi : 
Plafond : 
>= 8 km
>= 3000ft
5 à 8 km
1000 à 3000 ft
1500m à 5 km
500 à 1000 ft
800 à 1500m
200 à 500 ft
< 800m
< 200 ft
Symboles :   Orages  Brouillard  Fortes neiges  Fortes précipitations  Vent > 20 kt







- Altitude de l'aérodrome : 1333 ft
- Code IATA : ICT


KICT - Wichita Mid Continent

DERNIER METAR :
  • 211953Z 20019G31KT 10SM SCT040 BKN110 BKN200 32/21 A2988 RMK AO2 PK WND 17031/1946 SLP103 T03170211

METARs EXPIRÉS :
  • 211853Z 18020G27KT 10SM SCT028 SCT040 BKN110 BKN200 30/21 A2991 RMK AO2 PK WND 18027/1822 SLP115 T03000211
  • 211753Z 20012G25KT 10SM BKN028 BKN034 BKN200 28/21 A2994 RMK AO2 PK WND 19026/1726 SLP124 T02830206 10289 20217 58001

TAF KICT
Valide du 21 à 19h jusqu'au 22 à 18h UTC


211926Z 2119/2218 19020G30KT P6SM SCT040
FM220300 18015KT P6SM VCSH SCT030 BKN050 OVC100
TEMPO 2209/2212 P6SM -TSRA BKN025CB
FM221200 19015KT P6SM BKN015
FM221700 25012KT P6SM BKN015
Pas de NOTAMs connus pour ce terrain.



MET'MAP, la Météo Aéronautique d'un coup d'oeil ! - Copyright ORBIFLY Décembre 2007 - Disclaimer

ORBIFLY MET'MAP TEAM :

Programmation & Développement : Alexandra Zaïnal
Conception & Développement : Baudouin d'Aumeries
Co-Programmation & Développement : Marc-Olivier Méhu
Soutien technique & logistique : Manuel Goepfert

Contact : metmap@orbifly.com




SOURCES & CREDITS :

   NOAA       Earth
Advisory